sensor_id;sensor_type;location;lat;lon;timestamp;pressure;altitude;pressure_sealevel;temperature;humidity
3524;BME280;1776;53.330;11.498;2023-02-17T00:02:16;22399.97;;;-147.39;80.83
3524;BME280;1776;53.330;11.498;2023-02-17T00:04:42;22377.59;;;-147.39;80.57
3524;BME280;1776;53.330;11.498;2023-02-17T00:07:07;22355.25;;;-147.39;80.52
3524;BME280;1776;53.330;11.498;2023-02-17T00:09:32;22625.56;;;-147.39;80.59
3524;BME280;1776;53.330;11.498;2023-02-17T00:11:57;22397.94;;;-147.39;80.51
3524;BME280;1776;53.330;11.498;2023-02-17T00:14:23;22393.88;;;-147.39;80.75
3524;BME280;1776;53.330;11.498;2023-02-17T00:16:48;22332.91;;;-147.39;80.65
3524;BME280;1776;53.330;11.498;2023-02-17T00:19:13;22347.13;;;-147.39;79.97
3524;BME280;1776;53.330;11.498;2023-02-17T00:24:35;22377.59;;;-147.39;80.78
3524;BME280;1776;53.330;11.498;2023-02-17T00:27:01;22355.25;;;-147.39;80.89
3524;BME280;1776;53.330;11.498;2023-02-17T00:32:02;22318.66;;;-147.39;80.91
3524;BME280;1776;53.330;11.498;2023-02-17T00:39:33;22318.66;;;-147.39;81.64
3524;BME280;1776;53.330;11.498;2023-02-17T00:41:59;22353.22;;;-147.39;81.51
3524;BME280;1776;53.330;11.498;2023-02-17T00:44:35;22314.59;;;-147.39;81.74
3524;BME280;1776;53.330;11.498;2023-02-17T00:47:00;22292.25;;;-147.39;81.69
3524;BME280;1776;53.330;11.498;2023-02-17T00:49:25;22265.81;;;-147.39;81.66
3524;BME280;1776;53.330;11.498;2023-02-17T00:51:51;22294.28;;;-147.39;81.92
3524;BME280;1776;53.330;11.498;2023-02-17T00:54:16;22215.03;;;-147.39;82.17
3524;BME280;1776;53.330;11.498;2023-02-17T00:56:43;22290.22;;;-147.39;82.29
3524;BME280;1776;53.330;11.498;2023-02-17T00:59:11;22215.03;;;-147.39;82.37
3524;BME280;1776;53.330;11.498;2023-02-17T01:01:39;22233.31;;;-147.39;83.21
3524;BME280;1776;53.330;11.498;2023-02-17T01:04:04;22221.13;;;-147.39;82.81
3524;BME280;1776;53.330;11.498;2023-02-17T01:06:33;22188.59;;;-147.39;83.17
3524;BME280;1776;53.330;11.498;2023-02-17T01:08:59;22198.75;;;-147.39;83.42
3524;BME280;1776;53.330;11.498;2023-02-17T01:11:27;22158.13;;;-147.39;83.83
3524;BME280;1776;53.330;11.498;2023-02-17T01:13:54;22091.06;;;-147.39;83.90
3524;BME280;1776;53.330;11.498;2023-02-17T01:18:49;22060.56;;;-147.39;84.33
3524;BME280;1776;53.330;11.498;2023-02-17T01:21:22;22030.09;;;-147.39;84.47
3524;BME280;1776;53.330;11.498;2023-02-17T01:23:50;21977.25;;;-147.39;84.47
3524;BME280;1776;53.330;11.498;2023-02-17T01:26:20;22024.00;;;-147.39;84.54
3524;BME280;1776;53.330;11.498;2023-02-17T01:28:46;22074.78;;;-147.39;84.28
3524;BME280;1776;53.330;11.498;2023-02-17T01:31:12;21973.19;;;-147.39;84.33
3524;BME280;1776;53.330;11.498;2023-02-17T01:33:39;21963.03;;;-147.39;84.37
3524;BME280;1776;53.330;11.498;2023-02-17T01:36:07;21891.91;;;-147.39;84.63
3524;BME280;1776;53.330;11.498;2023-02-17T01:38:34;21891.91;;;-147.39;84.82
3524;BME280;1776;53.330;11.498;2023-02-17T01:40:59;21871.59;;;-147.39;84.75
3524;BME280;1776;53.330;11.498;2023-02-17T01:43:24;21849.22;;;-147.39;84.85
3524;BME280;1776;53.330;11.498;2023-02-17T01:45:58;21837.03;;;-147.39;85.12
3524;BME280;1776;53.330;11.498;2023-02-17T01:53:31;21784.19;;;-147.39;85.15
3524;BME280;1776;53.330;11.498;2023-02-17T01:55:59;21767.94;;;-147.39;85.48
3524;BME280;1776;53.330;11.498;2023-02-17T01:58:26;20766.28;;;-147.39;85.90
3524;BME280;1776;53.330;11.498;2023-02-17T02:00:52;21672.44;;;-147.39;85.80
3524;BME280;1776;53.330;11.498;2023-02-17T02:03:19;21635.88;;;-147.39;86.03
3524;BME280;1776;53.330;11.498;2023-02-17T02:05:45;21603.34;;;-147.39;86.04
3524;BME280;1776;53.330;11.498;2023-02-17T02:08:12;21566.78;;;-147.39;85.93
3524;BME280;1776;53.330;11.498;2023-02-17T02:10:38;21599.28;;;-147.39;85.93
3524;BME280;1776;53.330;11.498;2023-02-17T02:13:06;21534.25;;;-147.39;85.86
3524;BME280;1776;53.330;11.498;2023-02-17T02:15:56;21631.81;;;-147.39;85.92
3524;BME280;1776;53.330;11.498;2023-02-17T02:40:06;21381.88;;;-147.39;86.37
3524;BME280;1776;53.330;11.498;2023-02-17T02:45:08;21296.53;;;-147.39;86.70
3524;BME280;1776;53.330;11.498;2023-02-17T02:47:49;21324.97;;;-147.39;86.93
3524;BME280;1776;53.330;11.498;2023-02-17T02:58:20;21052.72;;;-147.39;87.39
3524;BME280;1776;53.330;11.498;2023-02-17T03:00:55;21056.78;;;-147.39;87.57
3524;BME280;1776;53.330;11.498;2023-02-17T03:08:46;20884.09;;;-147.39;87.67
3524;BME280;1776;53.330;11.498;2023-02-17T03:11:13;20878.00;;;-147.39;87.75
3524;BME280;1776;53.330;11.498;2023-02-17T03:13:59;20892.22;;;-147.39;87.73
3524;BME280;1776;53.330;11.498;2023-02-17T03:16:24;20792.69;;;-147.39;87.86
3524;BME280;1776;53.330;11.498;2023-02-17T03:18:50;20776.44;;;-147.39;87.75
3524;BME280;1776;53.330;11.498;2023-02-17T03:21:15;20719.53;;;-147.39;88.09
3524;BME280;1776;53.330;11.498;2023-02-17T03:26:15;20652.50;;;-147.39;88.29
3524;BME280;1776;53.330;11.498;2023-02-17T03:28:43;20587.50;;;-147.39;88.07
3524;BME280;1776;53.330;11.498;2023-02-17T03:31:08;20565.16;;;-147.39;88.33
3524;BME280;1776;53.330;11.498;2023-02-17T03:33:34;20510.31;;;-147.39;88.38
3524;BME280;1776;53.330;11.498;2023-02-17T03:35:59;20508.28;;;-147.39;88.62
3524;BME280;1776;53.330;11.498;2023-02-17T03:38:24;20404.69;;;-147.39;88.71
3524;BME280;1776;53.330;11.498;2023-02-17T03:40:50;20329.50;;;-147.39;88.66
3524;BME280;1776;53.330;11.498;2023-02-17T03:43:17;20262.47;;;-147.39;88.95
3524;BME280;1776;53.330;11.498;2023-02-17T03:45:42;20191.38;;;-147.39;89.05
3524;BME280;1776;53.330;11.498;2023-02-17T03:48:07;20138.56;;;-147.39;88.97
3524;BME280;1776;53.330;11.498;2023-02-17T03:50:32;20095.91;;;-147.39;89.02
3524;BME280;1776;53.330;11.498;2023-02-17T03:52:58;20039.06;;;-147.39;89.17
3524;BME280;1776;53.330;11.498;2023-02-17T03:55:23;20317.31;;;-147.39;89.18
3524;BME280;1776;53.330;11.498;2023-02-17T03:57:48;19939.53;;;-147.39;89.30
3524;BME280;1776;53.330;11.498;2023-02-17T04:00:14;19831.88;;;-147.39;89.51
3524;BME280;1776;53.330;11.498;2023-02-17T04:02:39;19764.84;;;-147.39;89.68
3524;BME280;1776;53.330;11.498;2023-02-17T04:05:05;19744.53;;;-147.39;89.41
3524;BME280;1776;53.330;11.498;2023-02-17T04:07:30;19643.00;;;-147.39;89.62
3524;BME280;1776;53.330;11.498;2023-02-17T04:09:56;19691.75;;;-147.39;89.51
3524;BME280;1776;53.330;11.498;2023-02-17T04:12:21;19630.81;;;-147.39;89.55
3524;BME280;1776;53.330;11.498;2023-02-17T04:14:46;19192.16;;;-147.39;89.44
3524;BME280;1776;53.330;11.498;2023-02-17T04:17:11;19553.63;;;-147.39;89.58
3524;BME280;1776;53.330;11.498;2023-02-17T04:19:37;19490.69;;;-147.39;89.73
3524;BME280;1776;53.330;11.498;2023-02-17T04:22:02;19427.72;;;-147.39;89.66
3524;BME280;1776;53.330;11.498;2023-02-17T04:24:28;19336.34;;;-147.39;89.75
3524;BME280;1776;53.330;11.498;2023-02-17T04:29:21;19326.19;;;-147.39;89.83
3524;BME280;1776;53.330;11.498;2023-02-17T04:31:46;19297.75;;;-147.39;89.83
3524;BME280;1776;53.330;11.498;2023-02-17T04:34:12;19216.53;;;-147.39;90.15
3524;BME280;1776;53.330;11.498;2023-02-17T04:36:37;19210.44;;;-147.39;90.18
3524;BME280;1776;53.330;11.498;2023-02-17T04:39:02;19163.72;;;-147.39;90.09
3524;BME280;1776;53.330;11.498;2023-02-17T04:41:28;19133.25;;;-147.39;90.18
3524;BME280;1776;53.330;11.498;2023-02-17T04:43:53;19043.91;;;-147.39;90.24
3524;BME280;1776;53.330;11.498;2023-02-17T04:48:55;18972.84;;;-147.39;90.41
3524;BME280;1776;53.330;11.498;2023-02-17T04:51:23;18999.25;;;-147.39;90.23
3524;BME280;1776;53.330;11.498;2023-02-17T05:03:57;19096.72;;;-147.39;89.56
3524;BME280;1776;53.330;11.498;2023-02-17T05:06:23;19112.97;;;-147.39;89.43
3524;BME280;1776;53.330;11.498;2023-02-17T05:08:48;19149.50;;;-147.39;89.26
3524;BME280;1776;53.330;11.498;2023-02-17T05:11:14;19133.25;;;-147.39;89.49
3524;BME280;1776;53.330;11.498;2023-02-17T05:13:40;19145.44;;;-147.39;89.62
3524;BME280;1776;53.330;11.498;2023-02-17T05:16:05;19125.13;;;-147.39;89.40
3524;BME280;1776;53.330;11.498;2023-02-17T05:20:58;19125.13;;;-147.39;89.28
3524;BME280;1776;53.330;11.498;2023-02-17T05:23:26;19208.41;;;-147.39;89.36
3524;BME280;1776;53.330;11.498;2023-02-17T05:25:51;19127.16;;;-147.39;89.17
3524;BME280;1776;53.330;11.498;2023-02-17T05:28:17;19155.59;;;-147.39;89.35
3524;BME280;1776;53.330;11.498;2023-02-17T05:30:42;19165.75;;;-147.39;89.46
3524;BME280;1776;53.330;11.498;2023-02-17T05:33:07;19161.69;;;-147.39;89.42
3524;BME280;1776;53.330;11.498;2023-02-17T05:35:34;19139.34;;;-147.39;89.43
3524;BME280;1776;53.330;11.498;2023-02-17T05:37:59;19163.72;;;-147.39;89.16
3524;BME280;1776;53.330;11.498;2023-02-17T05:40:24;19147.47;;;-147.39;89.27
3524;BME280;1776;53.330;11.498;2023-02-17T05:42:50;19096.72;;;-147.39;89.35
3524;BME280;1776;53.330;11.498;2023-02-17T05:45:15;19119.03;;;-147.39;89.45
3524;BME280;1776;53.330;11.498;2023-02-17T05:47:40;19072.34;;;-147.39;89.57
3524;BME280;1776;53.330;11.498;2023-02-17T05:50:06;19047.97;;;-147.39;89.35
3524;BME280;1776;53.330;11.498;2023-02-17T05:52:31;19123.09;;;-147.39;89.47
3524;BME280;1776;53.330;11.498;2023-02-17T05:54:57;19078.44;;;-147.39;89.51
3524;BME280;1776;53.330;11.498;2023-02-17T05:57:22;19070.31;;;-147.39;89.58
3524;BME280;1776;53.330;11.498;2023-02-17T05:59:47;19039.84;;;-147.39;89.64
3524;BME280;1776;53.330;11.498;2023-02-17T06:02:12;18347.47;;;-147.39;89.11
3524;BME280;1776;53.330;11.498;2023-02-17T06:04:38;19025.63;;;-147.39;89.68
3524;BME280;1776;53.330;11.498;2023-02-17T06:07:03;19039.84;;;-147.39;89.53
3524;BME280;1776;53.330;11.498;2023-02-17T06:09:31;18948.47;;;-147.39;90.09
3524;BME280;1776;53.330;11.498;2023-02-17T06:11:57;18814.47;;;-147.39;90.35
3524;BME280;1776;53.330;11.498;2023-02-17T06:14:22;18733.25;;;-147.39;90.47
3524;BME280;1776;53.330;11.498;2023-02-17T06:16:47;18680.44;;;-147.39;90.83
3524;BME280;1776;53.330;11.498;2023-02-17T06:19:12;18585.00;;;-147.39;90.91
3524;BME280;1776;53.330;11.498;2023-02-17T06:24:05;18477.41;;;-147.39;91.07
3524;BME280;1776;53.330;11.498;2023-02-17T06:26:31;18375.91;;;-147.39;91.25
3524;BME280;1776;53.330;11.498;2023-02-17T06:28:56;18280.47;;;-147.39;91.26
3524;BME280;1776;53.330;11.498;2023-02-17T06:31:21;18227.69;;;-147.39;91.46
3524;BME280;1776;53.330;11.498;2023-02-17T06:33:47;18183.03;;;-147.39;91.54
3524;BME280;1776;53.330;11.498;2023-02-17T06:36:12;18038.88;;;-147.39;91.61
3524;BME280;1776;53.330;11.498;2023-02-17T06:38:37;18248.00;;;-147.39;91.52
3524;BME280;1776;53.330;11.498;2023-02-17T06:41:03;17949.56;;;-147.39;91.42
3524;BME280;1776;53.330;11.498;2023-02-17T06:43:28;17959.72;;;-147.39;91.68
3524;BME280;1776;53.330;11.498;2023-02-17T06:45:53;17886.63;;;-147.39;91.76
3524;BME280;1776;53.330;11.498;2023-02-17T06:48:19;17779.03;;;-147.39;91.98
3524;BME280;1776;53.330;11.498;2023-02-17T06:50:44;17647.09;;;-147.39;91.96
3524;BME280;1776;53.330;11.498;2023-02-17T06:55:39;17446.13;;;-147.39;92.13
3524;BME280;1776;53.330;11.498;2023-02-17T07:00:40;17466.44;;;-147.39;91.89
3524;BME280;1776;53.330;11.498;2023-02-17T07:05:40;17488.75;;;-147.39;92.00
3524;BME280;1776;53.330;11.498;2023-02-17T07:08:05;17446.13;;;-147.39;92.02
3524;BME280;1776;53.330;11.498;2023-02-17T07:10:31;17401.47;;;-147.39;91.87
3524;BME280;1776;53.330;11.498;2023-02-17T07:12:56;17478.59;;;-147.39;91.69
3524;BME280;1776;53.330;11.498;2023-02-17T07:15:21;16711.41;;;-147.39;91.83
3524;BME280;1776;53.330;11.498;2023-02-17T07:17:47;17468.47;;;-147.39;91.58
3524;BME280;1776;53.330;11.498;2023-02-17T07:20:12;17511.09;;;-147.39;91.79
3524;BME280;1776;53.330;11.498;2023-02-17T07:22:38;17494.84;;;-147.39;91.68
3524;BME280;1776;53.330;11.498;2023-02-17T07:25:04;17464.41;;;-147.39;91.75
3524;BME280;1776;53.330;11.498;2023-02-17T07:27:29;17452.22;;;-147.39;91.67
3524;BME280;1776;53.330;11.498;2023-02-17T07:29:55;17476.59;;;-147.39;91.85
3524;BME280;1776;53.330;11.498;2023-02-17T07:32:21;17468.47;;;-147.39;91.76
3524;BME280;1776;53.330;11.498;2023-02-17T07:34:46;17417.72;;;-147.39;91.89
3524;BME280;1776;53.330;11.498;2023-02-17T07:37:11;17417.72;;;-147.39;91.85
3524;BME280;1776;53.330;11.498;2023-02-17T07:39:37;17425.84;;;-147.39;91.87
3524;BME280;1776;53.330;11.498;2023-02-17T07:42:02;17399.44;;;-147.39;91.85
3524;BME280;1776;53.330;11.498;2023-02-17T07:44:29;17401.47;;;-147.39;91.68
3524;BME280;1776;53.330;11.498;2023-02-17T07:46:54;17342.63;;;-147.39;91.87
3524;BME280;1776;53.330;11.498;2023-02-17T07:49:20;17389.31;;;-147.39;91.79
3524;BME280;1776;53.330;11.498;2023-02-17T07:51:45;17364.94;;;-147.39;92.20
3524;BME280;1776;53.330;11.498;2023-02-17T07:56:45;17275.63;;;-147.39;92.10
3524;BME280;1776;53.330;11.498;2023-02-17T08:01:47;17198.50;;;-147.39;92.27
3524;BME280;1776;53.330;11.498;2023-02-17T08:04:14;17214.75;;;-147.39;92.12
3524;BME280;1776;53.330;11.498;2023-02-17T08:06:40;17111.22;;;-147.39;92.28
3524;BME280;1776;53.330;11.498;2023-02-17T08:09:05;17023.97;;;-147.39;92.45
3524;BME280;1776;53.330;11.498;2023-02-17T08:14:20;17019.91;;;-147.39;92.43
3524;BME280;1776;53.330;11.498;2023-02-17T08:16:46;17023.97;;;-147.39;92.27
3524;BME280;1776;53.330;11.498;2023-02-17T08:19:11;17009.75;;;-147.39;92.31
3524;BME280;1776;53.330;11.498;2023-02-17T08:21:36;16956.97;;;-147.39;92.35
3524;BME280;1776;53.330;11.498;2023-02-17T08:24:02;16934.66;;;-147.39;92.39
3524;BME280;1776;53.330;11.498;2023-02-17T08:26:27;16934.66;;;-147.39;92.55
3524;BME280;1776;53.330;11.498;2023-02-17T08:28:54;16877.84;;;-147.39;92.53
3524;BME280;1776;53.330;11.498;2023-02-17T08:36:22;16825.06;;;-147.39;92.47
3524;BME280;1776;53.330;11.498;2023-02-17T08:38:51;16863.63;;;-147.39;92.49
3524;BME280;1776;53.330;11.498;2023-02-17T08:41:26;16816.94;;;-147.39;92.52
3524;BME280;1776;53.330;11.498;2023-02-17T08:43:56;16774.31;;;-147.39;92.65
3524;BME280;1776;53.330;11.498;2023-02-17T08:46:22;16729.69;;;-147.39;92.45
3524;BME280;1776;53.330;11.498;2023-02-17T08:48:47;16802.75;;;-147.39;92.49
3524;BME280;1776;53.330;11.498;2023-02-17T08:51:15;16831.16;;;-147.39;92.59
3524;BME280;1776;53.330;11.498;2023-02-17T08:53:42;16737.78;;;-147.39;92.56
3524;BME280;1776;53.330;11.498;2023-02-17T08:56:08;16754.03;;;-147.39;92.50
3524;BME280;1776;53.330;11.498;2023-02-17T08:58:33;16768.25;;;-147.39;92.34
3524;BME280;1776;53.330;11.498;2023-02-17T09:00:59;16859.56;;;-147.39;92.50
3524;BME280;1776;53.330;11.498;2023-02-17T09:03:25;16821.00;;;-147.39;92.47
3524;BME280;1776;53.330;11.498;2023-02-17T09:05:54;16796.66;;;-147.39;92.31
3524;BME280;1776;53.330;11.498;2023-02-17T09:08:20;16865.66;;;-147.39;92.18
3524;BME280;1776;53.330;11.498;2023-02-17T09:10:45;16944.81;;;-147.39;92.20
3524;BME280;1776;53.330;11.498;2023-02-17T09:13:10;16914.38;;;-147.39;92.07
3524;BME280;1776;53.330;11.498;2023-02-17T09:15:36;16831.16;;;-147.39;92.18
3524;BME280;1776;53.330;11.498;2023-02-17T09:18:01;16956.97;;;-147.39;91.89
3524;BME280;1776;53.330;11.498;2023-02-17T09:20:27;16959.00;;;-147.39;91.82
3524;BME280;1776;53.330;11.498;2023-02-17T09:22:52;16989.47;;;-147.39;91.91
3524;BME280;1776;53.330;11.498;2023-02-17T09:25:17;17013.81;;;-147.39;91.77
3524;BME280;1776;53.330;11.498;2023-02-17T09:27:43;17066.56;;;-147.39;91.85
3524;BME280;1776;53.330;11.498;2023-02-17T09:30:08;17026.00;;;-147.39;91.85
3524;BME280;1776;53.330;11.498;2023-02-17T09:32:34;16967.13;;;-147.39;92.03
3524;BME280;1776;53.330;11.498;2023-02-17T09:34:59;16940.75;;;-147.39;92.10
3524;BME280;1776;53.330;11.498;2023-02-17T09:37:25;16894.06;;;-147.39;92.12
3524;BME280;1776;53.330;11.498;2023-02-17T09:39:51;16879.84;;;-147.39;92.16
3524;BME280;1776;53.330;11.498;2023-02-17T09:42:22;16894.06;;;-147.39;92.16
3524;BME280;1776;53.330;11.498;2023-02-17T09:44:57;16932.63;;;-147.39;92.04
3524;BME280;1776;53.330;11.498;2023-02-17T09:47:35;16894.06;;;-147.39;92.20
3524;BME280;1776;53.330;11.498;2023-02-17T09:50:08;16928.56;;;-147.39;92.02
3524;BME280;1776;53.330;11.498;2023-02-17T09:52:44;16908.28;;;-147.39;92.18
3524;BME280;1776;53.330;11.498;2023-02-17T09:55:25;16938.72;;;-147.39;92.22
3524;BME280;1776;53.330;11.498;2023-02-17T09:58:12;16875.81;;;-147.39;92.18
3524;BME280;1776;53.330;11.498;2023-02-17T10:01:00;17123.41;;;-147.39;92.31
3524;BME280;1776;53.330;11.498;2023-02-17T10:03:51;16814.91;;;-147.39;92.28
3524;BME280;1776;53.330;11.498;2023-02-17T10:06:28;16877.84;;;-147.39;92.26
3524;BME280;1776;53.330;11.498;2023-02-17T10:09:16;16900.16;;;-147.39;92.34
3524;BME280;1776;53.330;11.498;2023-02-17T10:14:32;16906.25;;;-147.39;92.10
3524;BME280;1776;53.330;11.498;2023-02-17T10:17:04;16922.47;;;-147.39;92.06
3524;BME280;1776;53.330;11.498;2023-02-17T10:19:50;16956.97;;;-147.39;91.85
3524;BME280;1776;53.330;11.498;2023-02-17T10:22:20;17046.28;;;-147.39;91.70
3524;BME280;1776;53.330;11.498;2023-02-17T10:24:45;17097.03;;;-147.39;91.74
3524;BME280;1776;53.330;11.498;2023-02-17T10:27:19;17131.53;;;-147.39;91.56
3524;BME280;1776;53.330;11.498;2023-02-17T10:29:57;17202.56;;;-147.39;91.31
3524;BME280;1776;53.330;11.498;2023-02-17T10:32:26;17239.09;;;-147.39;91.13
3524;BME280;1776;53.330;11.498;2023-02-17T10:35:11;17310.13;;;-147.39;90.92
3524;BME280;1776;53.330;11.498;2023-02-17T10:37:48;17401.47;;;-147.39;90.65
3524;BME280;1776;53.330;11.498;2023-02-17T10:40:22;17450.19;;;-147.39;90.57
3524;BME280;1776;53.330;11.498;2023-02-17T10:42:53;17537.47;;;-147.39;90.05
3524;BME280;1776;53.330;11.498;2023-02-17T10:45:35;17610.56;;;-147.39;90.11
3524;BME280;1776;53.330;11.498;2023-02-17T10:48:12;17634.91;;;-147.39;90.01
3524;BME280;1776;53.330;11.498;2023-02-17T10:50:41;17661.28;;;-147.39;90.02
3524;BME280;1776;53.330;11.498;2023-02-17T10:53:15;17720.16;;;-147.39;89.66
3524;BME280;1776;53.330;11.498;2023-02-17T10:55:54;17770.91;;;-147.39;89.41
3524;BME280;1776;53.330;11.498;2023-02-17T10:58:34;17896.78;;;-147.39;89.23
3524;BME280;1776;53.330;11.498;2023-02-17T11:01:02;17921.13;;;-147.39;88.95
3524;BME280;1776;53.330;11.498;2023-02-17T11:03:30;17933.31;;;-147.39;88.84
3524;BME280;1776;53.330;11.498;2023-02-17T11:06:13;17929.25;;;-147.39;88.75
3524;BME280;1776;53.330;11.498;2023-02-17T11:08:44;17973.91;;;-147.39;88.86
3524;BME280;1776;53.330;11.498;2023-02-17T11:11:17;18004.38;;;-147.39;88.59
3524;BME280;1776;53.330;11.498;2023-02-17T11:13:54;18002.34;;;-147.39;88.76
3524;BME280;1776;53.330;11.498;2023-02-17T11:16:42;18071.38;;;-147.39;88.72
3524;BME280;1776;53.330;11.498;2023-02-17T11:19:27;18038.88;;;-147.39;88.71
3524;BME280;1776;53.330;11.498;2023-02-17T11:21:55;18099.78;;;-147.39;88.60
3524;BME280;1776;53.330;11.498;2023-02-17T11:24:21;17925.19;;;-147.39;88.96
3524;BME280;1776;53.330;11.498;2023-02-17T11:27:23;18024.66;;;-147.39;89.07
3524;BME280;1776;53.330;11.498;2023-02-17T11:29:49;18038.88;;;-147.39;89.01
3524;BME280;1776;53.330;11.498;2023-02-17T11:32:15;18040.91;;;-147.39;89.27
3524;BME280;1776;53.330;11.498;2023-02-17T11:34:42;17992.19;;;-147.39;89.25
3524;BME280;1776;53.330;11.498;2023-02-17T11:39:45;17969.84;;;-147.39;89.55
3524;BME280;1776;53.330;11.498;2023-02-17T11:42:30;17977.97;;;-147.39;89.54
3524;BME280;1776;53.330;11.498;2023-02-17T11:44:58;17949.56;;;-147.39;89.85
3524;BME280;1776;53.330;11.498;2023-02-17T11:50:25;17902.88;;;-147.39;89.90
3524;BME280;1776;53.330;11.498;2023-02-17T11:56:02;17915.03;;;-147.39;89.77
3524;BME280;1776;53.330;11.498;2023-02-17T12:01:47;17957.69;;;-147.39;89.51
3524;BME280;1776;53.330;11.498;2023-02-17T12:04:28;18014.53;;;-147.39;89.39
3524;BME280;1776;53.330;11.498;2023-02-17T12:07:23;18038.88;;;-147.39;89.13
3524;BME280;1776;53.330;11.498;2023-02-17T12:10:05;18085.56;;;-147.39;88.88
3524;BME280;1776;53.330;11.498;2023-02-17T12:15:26;18134.28;;;-147.39;88.62
3524;BME280;1776;53.330;11.498;2023-02-17T12:18:24;18197.22;;;-147.39;88.29
3524;BME280;1776;53.330;11.498;2023-02-17T12:21:04;18254.06;;;-147.39;88.23
3524;BME280;1776;53.330;11.498;2023-02-17T12:24:02;18278.44;;;-147.39;87.87
3524;BME280;1776;53.330;11.498;2023-02-17T12:26:44;18329.19;;;-147.39;87.64
3524;BME280;1776;53.330;11.498;2023-02-17T12:36:55;18493.66;;;-147.39;86.74
3524;BME280;1776;53.330;11.498;2023-02-17T12:39:44;18572.84;;;-147.39;86.64
3524;BME280;1776;53.330;11.498;2023-02-17T12:42:16;18605.31;;;-147.39;86.39
3524;BME280;1776;53.330;11.498;2023-02-17T12:44:46;18654.06;;;-147.39;86.08
3524;BME280;1776;53.330;11.498;2023-02-17T12:50:18;18706.84;;;-147.39;86.34
3524;BME280;1776;53.330;11.498;2023-02-17T12:52:47;18650.00;;;-147.39;86.62
3524;BME280;1776;53.330;11.498;2023-02-17T12:55:19;18593.13;;;-147.39;87.17
3524;BME280;1776;53.330;11.498;2023-02-17T12:57:57;18603.28;;;-147.39;87.17
3524;BME280;1776;53.330;11.498;2023-02-17T13:00:57;18538.31;;;-147.39;87.64
3524;BME280;1776;53.330;11.498;2023-02-17T13:03:31;18534.25;;;-147.39;87.84
3524;BME280;1776;53.330;11.498;2023-02-17T13:06:22;18455.06;;;-147.39;88.24
3524;BME280;1776;53.330;11.498;2023-02-17T13:08:55;18434.78;;;-147.39;88.37
3524;BME280;1776;53.330;11.498;2023-02-17T13:11:40;18373.88;;;-147.39;88.81
3524;BME280;1776;53.330;11.498;2023-02-17T13:14:24;18339.34;;;-147.39;89.05
3524;BME280;1776;53.330;11.498;2023-02-17T13:16:50;18390.09;;;-147.39;89.06
3524;BME280;1776;53.330;11.498;2023-02-17T13:19:26;18282.50;;;-147.39;89.19
3524;BME280;1776;53.330;11.498;2023-02-17T13:21:55;18274.38;;;-147.39;89.02
3524;BME280;1776;53.330;11.498;2023-02-17T13:24:51;18310.94;;;-147.39;89.06
3524;BME280;1776;53.330;11.498;2023-02-17T13:29:58;18355.59;;;-147.39;89.23
3524;BME280;1776;53.330;11.498;2023-02-17T13:32:33;18272.34;;;-147.39;89.30
3524;BME280;1776;53.330;11.498;2023-02-17T13:35:42;18213.47;;;-147.39;89.36
3524;BME280;1776;53.330;11.498;2023-02-17T13:37:48;18227.69;;;-147.39;89.50
3524;BME280;1776;53.330;11.498;2023-02-17T13:42:41;18152.56;;;-147.39;89.85
3524;BME280;1776;53.330;11.498;2023-02-17T13:45:27;18099.78;;;-147.39;90.01
3524;BME280;1776;53.330;11.498;2023-02-17T13:47:56;18111.97;;;-147.39;90.20
3524;BME280;1776;53.330;11.498;2023-02-17T13:50:36;18073.38;;;-147.39;90.30
3524;BME280;1776;53.330;11.498;2023-02-17T13:55:53;18053.09;;;-147.39;90.12
3524;BME280;1776;53.330;11.498;2023-02-17T13:58:25;18099.78;;;-147.39;89.92
3524;BME280;1776;53.330;11.498;2023-02-17T14:00:52;18077.44;;;-147.39;90.10
3524;BME280;1776;53.330;11.498;2023-02-17T14:03:23;18116.03;;;-147.39;89.85
3524;BME280;1776;53.330;11.498;2023-02-17T14:05:52;18101.81;;;-147.39;89.85
3524;BME280;1776;53.330;11.498;2023-02-17T14:08:26;18174.91;;;-147.39;89.75
3524;BME280;1776;53.330;11.498;2023-02-17T14:10:52;18146.47;;;-147.39;89.50
3524;BME280;1776;53.330;11.498;2023-02-17T14:13:18;18130.22;;;-147.39;89.38
3524;BME280;1776;53.330;11.498;2023-02-17T14:15:54;18209.41;;;-147.39;89.09
3524;BME280;1776;53.330;11.498;2023-02-17T14:18:28;18223.63;;;-147.39;89.08
3524;BME280;1776;53.330;11.498;2023-02-17T14:21:05;18166.78;;;-147.39;88.89
3524;BME280;1776;53.330;11.498;2023-02-17T14:23:42;18262.19;;;-147.39;88.99
3524;BME280;1776;53.330;11.498;2023-02-17T14:26:14;18264.22;;;-147.39;88.76
3524;BME280;1776;53.330;11.498;2023-02-17T14:28:39;18250.00;;;-147.39;89.04
3524;BME280;1776;53.330;11.498;2023-02-17T14:31:18;18235.81;;;-147.39;88.92
3524;BME280;1776;53.330;11.498;2023-02-17T14:33:58;18245.97;;;-147.39;89.00
3524;BME280;1776;53.330;11.498;2023-02-17T14:36:26;18221.59;;;-147.39;89.41
3524;BME280;1776;53.330;11.498;2023-02-17T14:38:56;18205.34;;;-147.39;89.48
3524;BME280;1776;53.330;11.498;2023-02-17T14:41:22;18193.16;;;-147.39;89.56
3524;BME280;1776;53.330;11.498;2023-02-17T14:43:48;18172.88;;;-147.39;89.64
3524;BME280;1776;53.330;11.498;2023-02-17T14:46:13;18185.06;;;-147.39;89.39
3524;BME280;1776;53.330;11.498;2023-02-17T14:48:43;18201.28;;;-147.39;89.32
3524;BME280;1776;53.330;11.498;2023-02-17T14:51:16;18213.47;;;-147.39;89.27
3524;BME280;1776;53.330;11.498;2023-02-17T14:53:43;18235.81;;;-147.39;89.25
3524;BME280;1776;53.330;11.498;2023-02-17T14:56:35;18239.88;;;-147.39;89.10
3524;BME280;1776;53.330;11.498;2023-02-17T14:59:01;18229.72;;;-147.39;88.98
3524;BME280;1776;53.330;11.498;2023-02-17T15:01:27;18278.44;;;-147.39;88.92
3524;BME280;1776;53.330;11.498;2023-02-17T15:03:52;18312.94;;;-147.39;88.27
3524;BME280;1776;53.330;11.498;2023-02-17T15:06:21;18426.66;;;-147.39;87.85
3524;BME280;1776;53.330;11.498;2023-02-17T15:08:47;18513.94;;;-147.39;87.07
3524;BME280;1776;53.330;11.498;2023-02-17T15:11:30;18627.66;;;-147.39;86.57
3524;BME280;1776;53.330;11.498;2023-02-17T15:13:56;18654.06;;;-147.39;86.29
3524;BME280;1776;53.330;11.498;2023-02-17T15:16:21;18674.34;;;-147.39;86.30
3524;BME280;1776;53.330;11.498;2023-02-17T15:18:47;18725.13;;;-147.39;86.16